Time;durP1;ratioP1;P1;durP2;ratioP2;P2;SDS_P1;SDS_P2;PMS_P1;PMS_P2;Temp;Humidity;BMP_temperature;BMP_pressure;BME280_temperature;BME280_humidity;BME280_pressure;Samples;Min_cycle;Max_cycle;Signal;HPM_P1;HPM_P2
2023/03/08 04:02:33;;;;;;;0.70;0.70;;;12.70;44.70;;;;;;4908765;28;45837;-59
2023/03/08 04:04:58;;;;;;;0.93;0.70;;;12.70;44.70;;;;;;4941233;28;45172;-59
2023/03/08 04:07:24;;;;;;;0.60;0.60;;;12.70;44.70;;;;;;4967759;28;45210;-61
2023/03/08 04:09:49;;;;;;;0.70;0.70;;;12.70;44.70;;;;;;4940793;28;45990;-60
2023/03/08 04:12:15;;;;;;;0.80;0.80;;;12.70;44.70;;;;;;4946751;28;45004;-60
2023/03/08 04:14:40;;;;;;;1.00;0.90;;;12.70;44.70;;;;;;4941710;28;45317;-60
2023/03/08 04:17:06;;;;;;;0.75;0.75;;;12.70;44.70;;;;;;4941317;28;45124;-58
2023/03/08 04:19:32;;;;;;;0.82;0.80;;;12.70;44.70;;;;;;4950270;28;45050;-61
2023/03/08 04:21:58;;;;;;;1.50;1.00;;;12.70;44.70;;;;;;4927875;28;45017;-60
2023/03/08 04:24:23;;;;;;;0.77;0.70;;;12.70;44.70;;;;;;4929330;28;44996;-59
2023/03/08 04:26:49;;;;;;;0.80;0.80;;;12.70;44.70;;;;;;4944716;28;47303;-60
2023/03/08 04:29:14;;;;;;;1.00;0.70;;;12.70;44.70;;;;;;4910762;28;45382;-61
2023/03/08 04:31:40;;;;;;;0.75;0.70;;;12.70;44.70;;;;;;4943863;28;45515;-59
2023/03/08 04:34:05;;;;;;;0.90;0.80;;;12.70;44.70;;;;;;4944066;28;44985;-60
2023/03/08 04:36:31;;;;;;;0.90;0.70;;;12.70;44.70;;;;;;4933007;28;45921;-59
2023/03/08 04:38:56;;;;;;;0.70;0.70;;;12.70;44.70;;;;;;4912577;28;45237;-60
2023/03/08 04:41:23;;;;;;;0.82;0.80;;;12.70;44.70;;;;;;4940867;28;45177;-60
2023/03/08 04:43:51;;;;;;;0.80;0.80;;;12.70;44.70;;;;;;4947677;28;45598;-61
2023/03/08 04:46:18;;;;;;;0.95;0.85;;;12.60;44.70;;;;;;4930967;28;45951;-60
2023/03/08 04:48:43;;;;;;;0.63;0.60;;;12.70;44.70;;;;;;4930524;28;45058;-59
2023/03/08 04:51:10;;;;;;;0.50;0.50;;;12.70;44.70;;;;;;4930504;28;44993;-60
2023/03/08 04:53:37;;;;;;;0.60;0.60;;;12.70;44.70;;;;;;4930680;28;45132;-60
2023/03/08 04:56:03;;;;;;;1.10;1.00;;;12.70;44.70;;;;;;4925198;28;45248;-59
2023/03/08 04:58:28;;;;;;;0.50;0.50;;;12.70;44.70;;;;;;4941313;28;45156;-60
2023/03/08 05:00:54;;;;;;;0.70;0.70;;;12.70;44.70;;;;;;4919555;28;45778;-60
2023/03/08 05:03:20;;;;;;;0.60;0.60;;;12.70;45.30;;;;;;4937170;28;44918;-60
2023/03/08 05:05:46;;;;;;;0.80;0.77;;;12.70;44.70;;;;;;4944409;28;45871;-59
2023/03/08 05:08:11;;;;;;;0.73;0.70;;;12.70;44.70;;;;;;4944534;28;44664;-60
2023/03/08 05:10:37;;;;;;;0.67;0.67;;;12.60;45.30;;;;;;4941558;28;45477;-61
2023/03/08 05:13:02;;;;;;;1.07;0.97;;;12.70;44.70;;;;;;4925567;28;45490;-59
2023/03/08 05:15:28;;;;;;;0.65;0.65;;;12.60;44.70;;;;;;4939926;28;46356;-59
2023/03/08 05:17:53;;;;;;;0.70;0.70;;;12.60;44.80;;;;;;4939502;28;45294;-59
2023/03/08 05:20:19;;;;;;;0.70;0.70;;;12.60;44.70;;;;;;4947164;28;45221;-59
2023/03/08 05:22:45;;;;;;;0.80;0.80;;;12.60;44.70;;;;;;4924805;28;44988;-58
2023/03/08 05:25:10;;;;;;;0.70;0.70;;;12.70;44.80;;;;;;4947836;28;46095;-60
2023/03/08 05:27:36;;;;;;;0.70;0.70;;;12.60;44.70;;;;;;4945336;28;45540;-59
2023/03/08 05:30:03;;;;;;;0.63;0.60;;;12.60;44.70;;;;;;4930891;28;45025;-60
2023/03/08 05:32:28;;;;;;;0.77;0.77;;;12.70;44.70;;;;;;4924882;28;45373;-61
2023/03/08 05:34:54;;;;;;;0.63;0.63;;;12.60;44.70;;;;;;4929775;28;46736;-58
2023/03/08 05:37:20;;;;;;;0.98;0.80;;;12.70;44.80;;;;;;4945944;28;45185;-59
2023/03/08 05:39:47;;;;;;;0.95;0.80;;;12.70;44.70;;;;;;4935661;28;44713;-59
2023/03/08 05:42:12;;;;;;;0.70;0.70;;;12.70;44.70;;;;;;4939108;28;45063;-60
2023/03/08 05:44:38;;;;;;;0.70;0.70;;;12.60;44.70;;;;;;4942876;28;45293;-58
2023/03/08 05:47:04;;;;;;;0.68;0.68;;;12.60;44.70;;;;;;4915444;28;45042;-59
2023/03/08 05:49:29;;;;;;;0.77;0.73;;;12.70;44.80;;;;;;4945275;28;45460;-61
2023/03/08 05:51:55;;;;;;;0.70;0.70;;;12.70;44.70;;;;;;4949459;28;44841;-59
2023/03/08 05:54:20;;;;;;;0.70;0.70;;;12.70;44.80;;;;;;4934225;28;46173;-60
2023/03/08 05:56:46;;;;;;;0.60;0.60;;;12.60;44.70;;;;;;4934049;28;44984;-58
2023/03/08 05:59:11;;;;;;;0.80;0.80;;;12.60;44.80;;;;;;4934318;28;45329;-57
2023/03/08 06:01:37;;;;;;;1.30;0.90;;;12.60;44.70;;;;;;4940151;28;45293;-59
2023/03/08 06:04:03;;;;;;;0.90;0.80;;;12.60;44.80;;;;;;4947671;28;45132;-59
2023/03/08 06:06:28;;;;;;;0.95;0.80;;;12.60;44.70;;;;;;4948637;28;45113;-57
2023/03/08 06:08:55;;;;;;;0.70;0.70;;;12.60;44.80;;;;;;4951144;28;45289;-61
2023/03/08 06:11:20;;;;;;;0.90;0.90;;;12.60;44.80;;;;;;4946796;28;45809;-59
2023/03/08 06:13:46;;;;;;;0.77;0.77;;;12.60;44.80;;;;;;4955885;28;46419;-59
2023/03/08 06:16:11;;;;;;;0.73;0.70;;;12.60;44.70;;;;;;4925740;28;44690;-60
2023/03/08 06:18:38;;;;;;;0.67;0.67;;;12.60;44.70;;;;;;4930913;28;45001;-60
2023/03/08 06:21:08;;;;;;;0.70;0.70;;;12.60;44.70;;;;;;4941755;28;45162;-58
2023/03/08 06:23:34;;;;;;;0.70;0.70;;;12.60;44.70;;;;;;4930706;28;45389;-59
2023/03/08 06:25:59;;;;;;;0.80;0.80;;;12.60;44.80;;;;;;4946004;28;45255;-60
2023/03/08 06:28:25;;;;;;;0.87;0.87;;;12.60;44.80;;;;;;4911340;28;45647;-61
2023/03/08 06:30:51;;;;;;;0.70;0.63;;;12.60;44.80;;;;;;4929855;28;45165;-60
2023/03/08 06:33:17;;;;;;;0.80;0.80;;;12.60;44.80;;;;;;4938767;28;45380;-58
2023/03/08 06:35:43;;;;;;;0.60;0.60;;;12.60;44.80;;;;;;4952834;28;44784;-60
2023/03/08 06:38:09;;;;;;;0.90;0.70;;;12.60;44.80;;;;;;4950918;28;45148;-57
2023/03/08 06:40:34;;;;;;;0.60;0.60;;;12.60;44.80;;;;;;4942221;28;44610;-59
2023/03/08 06:43:00;;;;;;;0.80;0.70;;;12.60;44.80;;;;;;4945875;28;45955;-60
2023/03/08 06:45:26;;;;;;;0.70;0.70;;;12.60;44.80;;;;;;4939786;28;45051;-59
2023/03/08 06:47:51;;;;;;;0.70;0.70;;;12.60;44.80;;;;;;4928575;28;45440;-60
2023/03/08 06:50:17;;;;;;;0.80;0.80;;;12.60;44.80;;;;;;4949579;28;45061;-60
2023/03/08 06:52:42;;;;;;;0.85;0.60;;;12.60;44.80;;;;;;4930656;28;46402;-60
2023/03/08 06:55:09;;;;;;;0.60;0.60;;;12.60;44.80;;;;;;4942052;28;45298;-59
2023/03/08 06:57:34;;;;;;;0.70;0.70;;;12.60;44.80;;;;;;4948133;28;45055;-60
2023/03/08 07:00:00;;;;;;;0.60;0.60;;;12.60;44.80;;;;;;4930911;28;45196;-58
2023/03/08 07:02:26;;;;;;;0.70;0.70;;;12.60;44.80;;;;;;4922499;28;48448;-59
2023/03/08 07:04:51;;;;;;;0.73;0.70;;;12.60;44.80;;;;;;4930819;28;45216;-59
2023/03/08 07:07:17;;;;;;;0.63;0.60;;;12.70;44.80;;;;;;4947025;28;45124;-59
2023/03/08 07:09:42;;;;;;;0.70;0.70;;;12.60;44.80;;;;;;4945147;28;44936;-59
2023/03/08 07:12:08;;;;;;;0.73;0.73;;;12.60;44.80;;;;;;4945390;28;44881;-60
2023/03/08 07:14:33;;;;;;;0.60;0.60;;;12.60;44.80;;;;;;4931718;28;45718;-61
2023/03/08 07:16:59;;;;;;;0.77;0.70;;;12.60;44.80;;;;;;4943955;28;44975;-59
2023/03/08 07:19:25;;;;;;;1.00;0.80;;;12.60;44.80;;;;;;4936326;28;44990;-60
2023/03/08 07:21:50;;;;;;;0.65;0.65;;;12.60;44.80;;;;;;4943525;28;45583;-60
2023/03/08 07:24:16;;;;;;;0.70;0.70;;;12.60;44.80;;;;;;4929443;28;45154;-60
2023/03/08 07:26:41;;;;;;;0.75;0.73;;;12.60;44.80;;;;;;4947291;28;44674;-59
2023/03/08 07:29:07;;;;;;;0.50;0.50;;;12.60;44.80;;;;;;4950315;28;45035;-60
2023/03/08 07:31:35;;;;;;;0.80;0.77;;;12.60;44.80;;;;;;4930299;28;47642;-59
2023/03/08 07:34:02;;;;;;;0.80;0.80;;;12.60;44.90;;;;;;4947391;28;44967;-59
2023/03/08 07:36:27;;;;;;;0.82;0.80;;;12.60;44.80;;;;;;4944275;28;45158;-59
2023/03/08 07:38:53;;;;;;;0.77;0.70;;;12.60;44.90;;;;;;4912920;28;45008;-60
2023/03/08 07:41:18;;;;;;;0.83;0.83;;;12.60;44.80;;;;;;4943763;28;46134;-60
2023/03/08 07:43:44;;;;;;;1.03;0.93;;;12.60;44.80;;;;;;4947959;28;44963;-62
2023/03/08 07:46:09;;;;;;;0.80;0.70;;;12.60;44.80;;;;;;4950907;28;45264;-59
2023/03/08 07:48:35;;;;;;;0.70;0.70;;;12.60;44.80;;;;;;4955219;28;45754;-60
2023/03/08 07:51:09;;;;;;;0.93;0.80;;;12.60;44.90;;;;;;4917604;28;46954;-61
2023/03/08 07:53:35;;;;;;;0.70;0.70;;;12.60;44.90;;;;;;4940502;28;45471;-58
2023/03/08 07:56:01;;;;;;;0.98;0.88;;;12.60;44.80;;;;;;4914785;28;45023;-56
2023/03/08 07:58:27;;;;;;;0.80;0.80;;;12.60;44.80;;;;;;4930944;28;45281;-59
2023/03/08 08:00:52;;;;;;;0.80;0.80;;;12.60;44.90;;;;;;4927867;28;45567;-59
2023/03/08 08:03:18;;;;;;;0.80;0.73;;;12.60;44.80;;;;;;4944094;28;45274;-60
2023/03/08 08:05:43;;;;;;;0.90;0.80;;;12.60;44.80;;;;;;4929141;28;45243;-60
2023/03/08 08:08:12;;;;;;;0.80;0.80;;;12.60;44.80;;;;;;4949771;28;44944;-60
2023/03/08 08:10:41;;;;;;;0.90;0.80;;;12.60;44.80;;;;;;4937583;28;46119;-58
2023/03/08 08:13:06;;;;;;;0.70;0.60;;;12.60;44.80;;;;;;4945811;28;44911;-59
2023/03/08 08:15:32;;;;;;;0.93;0.80;;;12.60;44.80;;;;;;4946507;28;45256;-59
2023/03/08 08:17:58;;;;;;;0.77;0.70;;;12.60;44.80;;;;;;4915294;28;45041;-58
2023/03/08 08:20:25;;;;;;;0.80;0.80;;;12.60;44.90;;;;;;4934340;28;46168;-59
2023/03/08 08:22:52;;;;;;;0.70;0.70;;;12.60;44.90;;;;;;4932268;28;45040;-60
2023/03/08 08:25:17;;;;;;;0.70;0.70;;;12.60;44.80;;;;;;4935990;28;45157;-60
2023/03/08 08:27:43;;;;;;;0.80;0.77;;;12.60;44.80;;;;;;4947830;28;44927;-60
2023/03/08 08:30:11;;;;;;;0.73;0.73;;;12.60;44.90;;;;;;4947926;28;45232;-60
2023/03/08 08:32:37;;;;;;;0.75;0.65;;;12.60;44.90;;;;;;4924197;28;44919;-59
2023/03/08 08:35:03;;;;;;;0.83;0.77;;;12.60;44.90;;;;;;4935712;28;44901;-60
2023/03/08 08:37:30;;;;;;;1.20;0.80;;;12.60;44.90;;;;;;4951103;28;44910;-59
2023/03/08 08:39:56;;;;;;;0.70;0.70;;;12.60;44.80;;;;;;4932739;28;45833;-60
2023/03/08 08:42:21;;;;;;;0.70;0.70;;;12.60;44.90;;;;;;4943868;28;45205;-59
2023/03/08 08:44:47;;;;;;;0.80;0.80;;;12.60;44.90;;;;;;4944869;28;44949;-57
2023/03/08 08:47:12;;;;;;;1.07;0.70;;;12.60;44.90;;;;;;4945664;28;45007;-60
2023/03/08 08:49:38;;;;;;;1.10;0.80;;;12.60;44.80;;;;;;4950281;28;45344;-58
2023/03/08 08:52:04;;;;;;;1.00;0.80;;;12.60;45.20;;;;;;4948358;28;44964;-60
2023/03/08 08:54:29;;;;;;;0.82;0.68;;;12.60;44.80;;;;;;4933884;28;44747;-59
2023/03/08 08:56:55;;;;;;;0.68;0.60;;;12.60;44.80;;;;;;4942999;28;45436;-57
2023/03/08 08:59:20;;;;;;;0.97;0.80;;;12.60;44.90;;;;;;4936485;28;45412;-60
2023/03/08 09:01:46;;;;;;;1.10;0.80;;;12.70;44.80;;;;;;4943933;28;45048;-58
2023/03/08 09:04:12;;;;;;;0.60;0.60;;;12.60;44.80;;;;;;4947107;28;44964;-58
2023/03/08 09:06:38;;;;;;;0.80;0.80;;;12.60;44.80;;;;;;4950514;28;44944;-58
2023/03/08 09:09:04;;;;;;;0.90;0.80;;;12.60;44.80;;;;;;4932166;28;45388;-60
2023/03/08 09:11:30;;;;;;;0.80;0.70;;;12.60;44.90;;;;;;4947496;28;45065;-60
2023/03/08 09:13:56;;;;;;;1.10;0.90;;;12.60;44.90;;;;;;4946805;28;45253;-60
2023/03/08 09:16:23;;;;;;;0.70;0.70;;;12.60;44.90;;;;;;4949091;28;45338;-59
2023/03/08 09:18:49;;;;;;;1.00;0.80;;;12.60;44.80;;;;;;4915784;28;47493;-59
2023/03/08 09:21:15;;;;;;;1.05;0.80;;;12.60;44.90;;;;;;4950203;28;45399;-60
2023/03/08 09:23:41;;;;;;;0.90;0.80;;;12.60;44.90;;;;;;4948259;28;45172;-60
2023/03/08 09:26:06;;;;;;;1.20;1.00;;;12.60;44.80;;;;;;4928607;28;45174;-59
2023/03/08 09:28:32;;;;;;;1.10;0.60;;;12.60;44.80;;;;;;4929758;28;44932;-59
2023/03/08 09:30:58;;;;;;;0.85;0.73;;;12.60;44.90;;;;;;4925335;28;45055;-59
2023/03/08 09:33:23;;;;;;;0.90;0.80;;;12.60;44.90;;;;;;4950080;28;45109;-59
2023/03/08 09:35:58;;;;;;;1.50;0.90;;;12.60;44.80;;;;;;4950652;28;44947;-57
2023/03/08 09:38:24;;;;;;;1.10;0.80;;;12.60;44.90;;;;;;4926897;28;45972;-58
2023/03/08 09:41:12;;;;;;;1.10;1.00;;;12.60;44.90;;;;;;4922986;28;45435;-59
2023/03/08 09:44:02;;;;;;;0.80;0.80;;;12.60;44.90;;;;;;4929232;28;45130;-59
2023/03/08 09:46:34;;;;;;;0.80;0.80;;;12.60;44.90;;;;;;4930255;28;44943;-59
2023/03/08 09:49:00;;;;;;;0.90;0.90;;;12.60;44.90;;;;;;4929290;28;46173;-59
2023/03/08 09:51:28;;;;;;;1.02;0.88;;;12.60;44.90;;;;;;4933093;28;45207;-59
2023/03/08 09:53:56;;;;;;;1.30;0.80;;;12.60;44.80;;;;;;4931395;28;45127;-58
2023/03/08 09:56:55;;;;;;;1.45;0.88;;;12.60;44.90;;;;;;4925676;28;44960;-60
2023/03/08 09:59:31;;;;;;;0.80;0.80;;;12.60;44.80;;;;;;4919629;28;45114;-59
2023/03/08 10:02:34;;;;;;;1.35;1.02;;;12.60;44.80;;;;;;4928389;28;44988;-59
2023/03/08 10:05:26;;;;;;;1.00;0.90;;;12.60;44.80;;;;;;4944199;28;44943;-59
2023/03/08 10:08:04;;;;;;;1.00;0.88;;;12.70;44.80;;;;;;4924191;28;45162;-58
2023/03/08 10:10:41;;;;;;;1.38;0.73;;;12.70;44.80;;;;;;4931925;28;46057;-58
2023/03/08 10:13:36;;;;;;;0.80;0.80;;;12.60;44.80;;;;;;4929145;28;44974;-59
2023/03/08 10:16:02;;;;;;;1.20;1.05;;;12.60;44.80;;;;;;4927188;28;45194;-59
2023/03/08 10:19:03;;;;;;;1.07;0.97;;;12.60;44.80;;;;;;4950553;28;44978;-59
2023/03/08 10:21:29;;;;;;;1.30;1.00;;;12.60;44.80;;;;;;4904795;28;45082;-58
2023/03/08 10:24:17;;;;;;;1.00;0.90;;;12.60;44.80;;;;;;4936814;28;45611;-59
2023/03/08 10:26:43;;;;;;;1.20;0.80;;;12.60;44.80;;;;;;4947679;28;45159;-60
2023/03/08 10:29:12;;;;;;;1.02;0.93;;;12.60;44.90;;;;;;4925860;28;45117;-60
2023/03/08 10:31:37;;;;;;;1.10;1.00;;;12.70;44.80;;;;;;4931610;28;45964;-58
2023/03/08 10:34:18;;;;;;;0.85;0.82;;;12.70;44.80;;;;;;4928105;28;45020;-59
2023/03/08 10:37:00;;;;;;;1.27;1.00;;;12.60;44.80;;;;;;4947702;28;44963;-60
2023/03/08 10:39:26;;;;;;;1.10;1.00;;;12.60;44.80;;;;;;4941143;28;45585;-60
2023/03/08 10:41:54;;;;;;;1.20;0.90;;;12.60;44.80;;;;;;4949423;28;46070;-59
2023/03/08 10:44:52;;;;;;;0.82;0.80;;;12.70;44.80;;;;;;4914955;28;45059;-59
2023/03/08 10:47:27;;;;;;;1.33;0.90;;;12.70;44.80;;;;;;4953583;28;45088;-60
2023/03/08 10:50:23;;;;;;;1.00;0.90;;;12.60;44.80;;;;;;4954331;28;45175;-60
2023/03/08 10:52:52;;;;;;;1.17;1.08;;;12.60;44.80;;;;;;4937153;28;45209;-60
2023/03/08 10:55:19;;;;;;;1.42;1.10;;;12.60;44.80;;;;;;4938527;28;45082;-60
2023/03/08 10:57:52;;;;;;;1.33;1.13;;;12.60;44.80;;;;;;4949894;28;45146;-61
2023/03/08 11:00:18;;;;;;;1.20;1.10;;;12.70;44.90;;;;;;4929806;28;45161;-58
2023/03/08 11:02:44;;;;;;;1.07;0.97;;;12.70;44.80;;;;;;4949741;28;46543;-59
2023/03/08 11:05:21;;;;;;;1.00;0.90;;;12.60;44.80;;;;;;4937437;28;45202;-57
2023/03/08 11:07:53;;;;;;;1.33;1.00;;;12.60;44.80;;;;;;4938443;28;44744;-60
2023/03/08 11:10:22;;;;;;;1.00;0.85;;;12.60;44.80;;;;;;4947424;28;45501;-59
2023/03/08 11:13:07;;;;;;;1.50;1.20;;;12.70;44.80;;;;;;4953985;28;46664;-58
2023/03/08 11:15:33;;;;;;;1.35;1.10;;;12.70;44.80;;;;;;4924132;28;44981;-60
2023/03/08 11:18:02;;;;;;;1.20;1.10;;;12.60;44.80;;;;;;4932786;28;44897;-57
2023/03/08 11:20:29;;;;;;;1.10;1.00;;;12.70;44.80;;;;;;4943816;28;45781;-58
2023/03/08 11:23:04;;;;;;;1.10;1.00;;;12.60;44.80;;;;;;4918295;28;46289;-58
2023/03/08 11:25:41;;;;;;;1.30;1.00;;;12.70;44.80;;;;;;4943264;28;44932;-59
2023/03/08 11:28:10;;;;;;;1.60;1.10;;;12.70;44.80;;;;;;4944483;28;45464;-59
2023/03/08 11:31:13;;;;;;;1.15;1.05;;;12.70;44.80;;;;;;4942144;28;44951;-58
2023/03/08 11:33:42;;;;;;;1.45;1.10;;;12.70;44.80;;;;;;4938954;28;45151;-58
2023/03/08 11:36:29;;;;;;;1.27;1.02;;;12.70;44.80;;;;;;4941887;28;45042;-58
2023/03/08 11:39:07;;;;;;;1.38;1.27;;;12.70;44.80;;;;;;4917737;28;45472;-58
2023/03/08 11:41:53;;;;;;;1.40;1.20;;;12.60;44.70;;;;;;4925272;28;45750;-58
2023/03/08 11:44:34;;;;;;;1.23;0.93;;;12.70;44.80;;;;;;4928687;28;46202;-59
2023/03/08 11:47:21;;;;;;;1.58;1.20;;;12.70;44.80;;;;;;4940415;28;44769;-59
2023/03/08 11:50:08;;;;;;;1.10;0.98;;;12.70;44.80;;;;;;4941302;28;45006;-59
2023/03/08 11:52:42;;;;;;;1.60;1.20;;;12.70;44.80;;;;;;4935268;28;44924;-57
2023/03/08 11:55:34;;;;;;;1.50;1.20;;;12.70;44.80;;;;;;4902372;28;46627;-59
2023/03/08 11:58:12;;;;;;;1.08;0.98;;;12.70;44.80;;;;;;4925755;28;45017;-60
2023/03/08 12:00:40;;;;;;;1.23;1.10;;;12.70;44.80;;;;;;4904872;28;45295;-57
2023/03/08 12:03:11;;;;;;;1.60;1.30;;;12.70;44.80;;;;;;4924262;28;45033;-58
2023/03/08 12:05:49;;;;;;;1.35;1.08;;;12.70;44.80;;;;;;4926059;28;45266;-58
2023/03/08 12:08:21;;;;;;;1.60;1.30;;;12.70;44.70;;;;;;4928487;28;45118;-58
2023/03/08 12:11:01;;;;;;;1.15;1.05;;;12.70;44.80;;;;;;4941145;28;44989;-58
2023/03/08 12:13:37;;;;;;;1.30;1.00;;;12.70;44.80;;;;;;4903532;28;45257;-58
2023/03/08 12:16:12;;;;;;;1.33;1.02;;;12.70;44.80;;;;;;4924086;28;46022;-57
2023/03/08 12:18:53;;;;;;;1.70;1.15;;;12.70;44.80;;;;;;4937341;28;45620;-58
2023/03/08 12:21:28;;;;;;;1.40;1.30;;;12.70;44.80;;;;;;4943104;28;45026;-57
2023/03/08 12:24:01;;;;;;;1.20;1.08;;;12.70;44.80;;;;;;4942124;28;45662;-60
2023/03/08 12:26:29;;;;;;;1.20;1.10;;;12.70;44.80;;;;;;4923993;28;45004;-57
2023/03/08 12:29:00;;;;;;;1.40;1.20;;;12.70;44.80;;;;;;4917184;28;44881;-59
2023/03/08 12:31:46;;;;;;;1.50;1.30;;;12.70;44.80;;;;;;4934505;28;44924;-67
2023/03/08 12:34:26;;;;;;;1.15;1.00;;;12.70;45.20;;;;;;4942944;28;45342;-58
2023/03/08 12:36:52;;;;;;;2.53;1.40;;;12.70;44.80;;;;;;4943457;28;45716;-59
2023/03/08 12:39:34;;;;;;;1.10;1.00;;;12.70;44.80;;;;;;4943747;28;45214;-59
2023/03/08 12:42:09;;;;;;;1.47;1.13;;;12.70;44.80;;;;;;4942754;28;45358;-59
2023/03/08 12:44:34;;;;;;;1.35;1.17;;;12.70;44.80;;;;;;4942091;28;45501;-60
2023/03/08 12:47:12;;;;;;;1.35;1.10;;;12.70;44.80;;;;;;4940954;28;45014;-60
2023/03/08 12:49:39;;;;;;;1.10;1.00;;;12.70;44.80;;;;;;4942210;28;44727;-57
2023/03/08 12:52:17;;;;;;;1.58;1.10;;;12.70;44.80;;;;;;4932778;28;45062;-60
2023/03/08 12:54:53;;;;;;;1.75;1.35;;;12.70;44.80;;;;;;4943055;28;44963;-60
2023/03/08 12:57:21;;;;;;;1.50;1.17;;;12.70;44.80;;;;;;4927879;28;46220;-57
2023/03/08 12:59:46;;;;;;;1.38;1.13;;;12.70;44.90;;;;;;4915942;28;44969;-55
2023/03/08 13:02:24;;;;;;;1.30;0.90;;;12.70;44.90;;;;;;4924368;28;45224;-60
2023/03/08 13:05:23;;;;;;;1.15;1.02;;;12.70;44.80;;;;;;4923535;28;45143;-61
2023/03/08 13:08:00;;;;;;;1.10;1.00;;;12.60;44.90;;;;;;4929356;28;46878;-60
2023/03/08 13:10:34;;;;;;;1.30;1.20;;;12.70;44.80;;;;;;4917618;28;45136;-58
2023/03/08 13:13:09;;;;;;;1.38;1.20;;;12.70;44.80;;;;;;4909477;28;45240;-61
2023/03/08 13:15:35;;;;;;;1.80;1.30;;;12.70;44.80;;;;;;4943008;28;45076;-59
2023/03/08 13:18:10;;;;;;;1.10;1.00;;;12.70;44.80;;;;;;4941254;28;45931;-60
2023/03/08 13:20:38;;;;;;;1.17;1.08;;;12.70;44.80;;;;;;4940884;28;45070;-60
2023/03/08 13:23:21;;;;;;;1.48;1.13;;;12.70;44.80;;;;;;4941834;28;45002;-59
2023/03/08 13:26:25;;;;;;;1.10;1.00;;;12.70;44.80;;;;;;4918440;28;45479;-60
2023/03/08 13:28:50;;;;;;;1.30;1.20;;;12.70;44.80;;;;;;4941487;28;46018;-58
2023/03/08 13:31:28;;;;;;;1.35;1.08;;;12.70;44.80;;;;;;4923783;28;46017;-59
2023/03/08 13:33:54;;;;;;;1.50;1.17;;;12.70;44.80;;;;;;4924448;28;45329;-60
2023/03/08 13:36:28;;;;;;;1.40;1.15;;;12.70;44.80;;;;;;4924374;28;45109;-60
2023/03/08 13:39:04;;;;;;;1.08;0.98;;;12.70;44.80;;;;;;4941195;28;45340;-57
2023/03/08 13:41:36;;;;;;;1.23;1.00;;;12.70;44.80;;;;;;4940686;28;45239;-59
2023/03/08 13:44:07;;;;;;;1.13;0.93;;;12.70;44.80;;;;;;4940099;28;45214;-60
2023/03/08 13:46:34;;;;;;;1.10;1.00;;;12.70;44.80;;;;;;4940538;28;45205;-60
2023/03/08 13:48:59;;;;;;;1.65;1.10;;;12.70;44.80;;;;;;4940002;28;45160;-59
2023/03/08 13:51:26;;;;;;;1.10;1.00;;;12.70;44.80;;;;;;4923679;28;45473;-60
2023/03/08 13:53:52;;;;;;;1.58;1.13;;;12.70;44.80;;;;;;4942559;28;45901;-59
2023/03/08 13:56:26;;;;;;;1.53;1.20;;;12.70;44.80;;;;;;4900165;28;44784;-59
2023/03/08 13:58:53;;;;;;;1.58;1.17;;;12.70;44.80;;;;;;4926054;28;45804;-58
2023/03/08 14:01:23;;;;;;;1.08;0.98;;;12.70;44.70;;;;;;4921428;28;45699;-59
2023/03/08 14:03:49;;;;;;;1.55;1.15;;;12.70;44.80;;;;;;4925012;28;45675;-59
2023/03/08 14:06:17;;;;;;;0.98;0.95;;;12.70;44.80;;;;;;4924038;28;45716;-60
2023/03/08 14:08:45;;;;;;;1.58;1.00;;;12.70;44.80;;;;;;4941870;28;45279;-59
2023/03/08 14:11:17;;;;;;;1.80;1.20;;;12.70;44.80;;;;;;4901184;28;45352;-59
2023/03/08 14:13:45;;;;;;;1.27;0.95;;;12.70;44.80;;;;;;4929485;28;45229;-60
2023/03/08 14:16:42;;;;;;;1.08;0.98;;;12.70;44.80;;;;;;4925546;28;45099;-58
2023/03/08 14:19:13;;;;;;;1.20;1.10;;;12.70;44.80;;;;;;4931026;28;45615;-57
2023/03/08 14:21:49;;;;;;;1.15;1.05;;;12.70;44.80;;;;;;4943957;28;45079;-60
2023/03/08 14:24:20;;;;;;;1.20;1.10;;;12.70;44.80;;;;;;4912460;28;45563;-59
2023/03/08 14:27:03;;;;;;;1.40;1.10;;;12.70;44.80;;;;;;4895738;28;45135;-60
2023/03/08 14:29:31;;;;;;;1.20;1.00;;;12.70;44.70;;;;;;4913161;28;46657;-57
2023/03/08 14:31:58;;;;;;;1.42;1.10;;;12.70;44.80;;;;;;4926537;28;46093;-58
2023/03/08 14:34:38;;;;;;;1.20;1.05;;;12.70;44.80;;;;;;4944379;28;45096;-59
2023/03/08 14:37:26;;;;;;;1.50;1.10;;;12.70;44.80;;;;;;4928015;28;45394;-59
2023/03/08 14:39:54;;;;;;;1.20;1.00;;;12.70;44.80;;;;;;4926238;28;46000;-60
2023/03/08 14:42:34;;;;;;;1.40;1.03;;;12.70;44.70;;;;;;4925519;28;45554;-58
2023/03/08 14:45:27;;;;;;;1.00;0.90;;;12.70;44.80;;;;;;4942770;28;45303;-60
2023/03/08 14:48:17;;;;;;;1.20;1.10;;;12.70;44.80;;;;;;4912527;28;45795;-59
2023/03/08 14:50:57;;;;;;;1.20;1.10;;;12.70;44.80;;;;;;4933099;28;46296;-60
2023/03/08 14:53:30;;;;;;;1.20;1.00;;;12.70;44.80;;;;;;4925499;28;45087;-58
2023/03/08 14:55:57;;;;;;;1.70;0.98;;;12.70;44.70;;;;;;4925906;28;45041;-57
2023/03/08 14:58:28;;;;;;;1.10;1.00;;;12.70;44.80;;;;;;4923684;28;45408;-59
2023/03/08 15:00:55;;;;;;;1.00;0.90;;;12.70;44.80;;;;;;4926052;28;46221;-58
2023/03/08 15:03:21;;;;;;;1.08;0.90;;;12.70;44.80;;;;;;4934986;28;44979;-60
2023/03/08 15:05:47;;;;;;;1.30;1.20;;;12.70;44.80;;;;;;4927333;28;45287;-60
2023/03/08 15:08:13;;;;;;;1.10;1.00;;;12.70;44.80;;;;;;4927078;28;45535;-60
2023/03/08 15:10:38;;;;;;;1.10;1.00;;;12.80;44.80;;;;;;4925401;28;46049;-60
2023/03/08 15:13:15;;;;;;;1.05;0.95;;;12.70;44.80;;;;;;4902319;28;45528;-61
2023/03/08 15:15:40;;;;;;;1.10;1.00;;;12.70;44.80;;;;;;4921747;28;45130;-58
2023/03/08 15:18:06;;;;;;;1.20;1.00;;;12.70;44.70;;;;;;4943743;28;45417;-60
2023/03/08 15:20:31;;;;;;;1.17;0.93;;;12.70;44.70;;;;;;4942750;28;46613;-59
2023/03/08 15:23:01;;;;;;;1.00;0.90;;;12.70;44.70;;;;;;4923982;28;44932;-59
2023/03/08 15:25:28;;;;;;;0.88;0.80;;;12.70;44.70;;;;;;4926140;28;45203;-57
2023/03/08 15:27:54;;;;;;;1.00;0.90;;;12.70;44.70;;;;;;4943246;28;45123;-60
2023/03/08 15:30:24;;;;;;;1.00;0.90;;;12.70;44.70;;;;;;4924796;28;45575;-56
2023/03/08 15:32:50;;;;;;;1.10;1.00;;;12.70;44.80;;;;;;4911687;28;45248;-58
2023/03/08 15:35:16;;;;;;;0.87;0.87;;;12.70;44.70;;;;;;4943479;28;45675;-58
2023/03/08 15:37:41;;;;;;;1.38;1.02;;;12.70;44.80;;;;;;4926959;28;45158;-56
2023/03/08 15:40:24;;;;;;;0.80;0.80;;;12.70;44.80;;;;;;4925994;28;46418;-57
2023/03/08 15:42:50;;;;;;;1.02;0.90;;;12.70;44.70;;;;;;4934630;28;45639;-56
2023/03/08 15:45:15;;;;;;;1.30;1.00;;;12.70;44.70;;;;;;4938104;28;45253;-58
2023/03/08 15:47:41;;;;;;;0.82;0.82;;;12.70;44.80;;;;;;4921843;28;45104;-58
2023/03/08 15:50:17;;;;;;;1.07;0.97;;;12.80;44.80;;;;;;4908546;28;46242;-61
2023/03/08 15:52:43;;;;;;;1.00;0.90;;;12.70;44.80;;;;;;4926197;28;45561;-59
2023/03/08 15:55:10;;;;;;;1.23;1.10;;;12.70;44.70;;;;;;4930877;28;46261;-61
2023/03/08 15:57:36;;;;;;;1.07;0.80;;;12.70;44.80;;;;;;4942273;28;45819;-59
2023/03/08 16:00:05;;;;;;;1.40;1.10;;;12.70;44.80;;;;;;4941926;28;45774;-60
2023/03/08 16:02:31;;;;;;;1.40;1.00;;;12.70;44.80;;;;;;4925495;28;44937;-59
2023/03/08 16:04:56;;;;;;;0.80;0.70;;;12.70;44.80;;;;;;4943507;28;45771;-59
2023/03/08 16:07:22;;;;;;;0.70;0.70;;;12.70;44.80;;;;;;4942015;28;45596;-57
2023/03/08 16:09:48;;;;;;;1.17;0.90;;;12.70;44.80;;;;;;4926476;28;46000;-58
2023/03/08 16:12:13;;;;;;;1.33;0.90;;;12.70;45.40;;;;;;4943056;28;44983;-60
2023/03/08 16:14:39;;;;;;;1.27;0.90;;;12.70;44.80;;;;;;4943267;28;44919;-58
2023/03/08 16:17:05;;;;;;;1.00;0.90;;;12.70;44.80;;;;;;4927484;28;45391;-58
2023/03/08 16:19:31;;;;;;;1.23;0.80;;;12.70;44.80;;;;;;4924495;28;46457;-60
2023/03/08 16:21:57;;;;;;;0.70;0.70;;;12.70;44.80;;;;;;4940896;28;44636;-61
2023/03/08 16:24:22;;;;;;;1.00;0.80;;;12.70;44.90;;;;;;4940117;28;45629;-59
2023/03/08 16:26:48;;;;;;;1.00;0.90;;;12.70;44.80;;;;;;4923818;28;45051;-59
2023/03/08 16:29:14;;;;;;;1.00;0.90;;;12.70;44.80;;;;;;4940600;28;45786;-59
2023/03/08 16:31:39;;;;;;;0.88;0.88;;;12.70;44.80;;;;;;4921389;28;45584;-58
2023/03/08 16:34:05;;;;;;;1.00;0.90;;;12.70;44.80;;;;;;4942186;28;45202;-57
2023/03/08 16:36:31;;;;;;;0.80;0.80;;;12.70;44.80;;;;;;4935635;28;45387;-57
2023/03/08 16:38:57;;;;;;;1.03;0.83;;;12.70;44.80;;;;;;4942632;28;45976;-60
2023/03/08 16:41:24;;;;;;;1.20;0.88;;;12.70;44.80;;;;;;4918784;28;45602;-60
2023/03/08 16:43:50;;;;;;;1.05;0.90;;;12.70;44.80;;;;;;4923122;28;45002;-59
2023/03/08 16:46:18;;;;;;;0.88;0.73;;;12.70;44.80;;;;;;4938669;28;45001;-59
2023/03/08 16:48:44;;;;;;;0.90;0.85;;;12.70;44.80;;;;;;4938587;28;46196;-60
2023/03/08 16:51:12;;;;;;;1.00;0.90;;;12.70;44.80;;;;;;4934192;28;45674;-58
2023/03/08 16:53:38;;;;;;;1.30;0.85;;;12.70;44.80;;;;;;4932441;28;44988;-59
2023/03/08 16:56:04;;;;;;;1.17;1.00;;;12.70;44.80;;;;;;4940237;28;45644;-59
2023/03/08 16:58:29;;;;;;;0.88;0.80;;;12.70;44.90;;;;;;4939091;28;46379;-59
2023/03/08 17:00:55;;;;;;;0.80;0.80;;;12.70;44.90;;;;;;4936763;28;44996;-59
2023/03/08 17:03:20;;;;;;;0.60;0.60;;;12.70;44.90;;;;;;4938486;28;45595;-58